This is the latest recevied weather packets stored in our database for station/object Dunnningn. If no packets are shown the sender has not sent any weather packets the latest 10 day(s).
| Time | Temp. | Humidity | Pressure | Rain* | Wind** | Luminosity | Snow |
|---|---|---|---|---|---|---|---|
| 1777316531 | 14.44° C | 45% | 1018.4 hPa | 0 mm | - | - | - |
| 1777314729 | 15.56° C | 43% | 1018.2 hPa | 0 mm | - | - | - |
| 1777312929 | 16.67° C | 42% | 1018 hPa | 0 mm | - | - | - |
| 1777311131 | 17.22° C | 42% | 1018 hPa | 0 mm | - | - | - |
| 1777309331 | 17.78° C | 41% | 1018.2 hPa | 0 mm | - | - | - |
| 1777307530 | 18.89° C | 38% | 1018.4 hPa | 0 mm | - | - | - |
| 1777305731 | 20° C | 36% | 1018.4 hPa | 0 mm | - | - | - |
| 1777303931 | 21.11° C | 32% | 1018.6 hPa | 0 mm | - | - | - |
| 1777302132 | 21.11° C | 35% | 1018.7 hPa | 0 mm | - | - | - |
| 1777300330 | 21.11° C | 30% | 1019.1 hPa | 0 mm | - | - | - |
| 1777298531 | 21.11° C | 32% | 1019.2 hPa | 0 mm | - | - | - |
| 1777296731 | 21.11° C | 33% | 1019.7 hPa | 0 mm | - | - | - |
| 1777294933 | 20.56° C | 33% | 1019.8 hPa | 0 mm | - | - | - |
| 1777293131 | 21.11° C | 35% | 1019.9 hPa | 0 mm | - | - | - |
| 1777291330 | 20.56° C | 37% | 1020.1 hPa | 0 mm | - | - | - |
| 1777289531 | 20.56° C | 33% | 1020.3 hPa | 0 mm | - | - | - |
| 1777287731 | 19.44° C | 37% | 1020.5 hPa | 0 mm | - | - | - |
| 1777285930 | 19.44° C | 45% | 1020.8 hPa | 0 mm | - | - | - |
| 1777284131 | 18.89° C | 39% | 1021.1 hPa | 0 mm | - | - | - |
| 1777282330 | 17.78° C | 41% | 1021.3 hPa | 0 mm | - | - | - |
| 1777280533 | 17.22° C | 45% | 1021.4 hPa | 0 mm | - | - | - |
| 1777278731 | 16.11° C | 48% | 1021.4 hPa | 0 mm | - | - | - |
| 1777276931 | 15° C | 50% | 1021.5 hPa | 0 mm | - | - | - |
| 1777275131 | 13.33° C | 59% | 1021.6 hPa | 0 mm | - | - | - |
| 1777273331 | 11.11° C | 64% | 1021.7 hPa | 0 mm | - | - | - |
* Rain since midnight (hover to see other rain measurements)
** Current wind speed in m/s (hover to see current wind gust speed)